Flight Track Log - Related Links

Times and Time Zones

All times are in EDT time to prevent confusion due to time zone crossing. See the SKW5564 flight status page for this flight to view local times or setup timezone preferences in your user account.

Time Position Orientation Groundspeed Altitude Reporting Facility
EDT Latitude Longitude Course Direction KTS MPH feet Rate Location/Type
Thu 10:47:24 AM 37.6500 -122.3500 50° Northeast 179 206 1,600  Level Northern Cal TRACON
Thu 10:48:24 AM 37.7000 -122.2833 47° Northeast 229 264 3,900 2,350 Climbing Northern Cal TRACON
Thu 10:49:24 AM 37.7500 -122.2167 47° Northeast 283 326 6,300 2,421 Climbing Northern Cal TRACON
Thu 10:51:00 AM 37.7651 -122.1520 46° Northeast  Level FlightAware Approximate
Thu 10:51:15 AM 37.8414 -122.0808 50° Northeast 303 349 10,800  Level Oakland Center
Thu 10:52:00 AM 37.8540 -122.0274 50° Northeast  Level FlightAware Approximate
Thu 10:52:16 AM 37.9033 -121.9953 47° Northeast 324 373 13,100  Level Oakland Center
Thu 10:53:18 AM 37.9819 -121.8856 48° Northeast 348 400 15,700 2,293 Climbing Oakland Center
Thu 10:54:19 AM 38.0528 -121.7892 47° Northeast 369 425 17,800 2,016 Climbing Oakland Center
Thu 10:55:20 AM 38.1258 -121.6869 48° Northeast 386 444 19,800 1,869 Climbing Oakland Center
Thu 10:56:21 AM 38.2014 -121.5803 48° Northeast 402 463 21,600 1,805 Climbing Oakland Center
Thu 10:57:23 AM 38.2858 -121.4617 48° Northeast 417 480 23,500 1,659 Climbing Oakland Center
Thu 10:58:24 AM 38.3642 -121.3464 49° Northeast 427 491 25,000 1,475 Climbing Oakland Center
Thu 10:59:25 AM 38.4350 -121.2278 53° Northeast 453 521 26,500 1,415 Climbing Oakland Center
Thu 11:00:27 AM 38.5172 -121.0964 51° Northeast 462 532 27,900 1,317 Climbing Oakland Center
Thu 11:01:28 AM 38.5972 -120.9661 52° Northeast 470 541 29,200 1,230 Climbing Oakland Center
Thu 11:02:29 AM 38.6786 -120.8336 52° Northeast 476 548 30,400 984 Climbing Oakland Center
Thu 11:03:30 AM 38.7789 -120.6678 52° Northeast 492 566 31,200 829 Climbing Oakland Center
Thu 11:04:32 AM 38.8650 -120.5250 52° Northeast 505 581 32,100 1,024 Climbing Oakland Center
Thu 11:05:33 AM 38.9528 -120.3822 52° Northeast 511 588 33,300 1,131 Climbing Oakland Center
Thu 11:06:34 AM 39.0389 -120.2372 53° Northeast 510 587 34,400 1,122 Climbing Oakland Center
Thu 11:07:36 AM 39.1308 -120.0864 52° Northeast 510 587 35,600 1,171 Climbing Oakland Center
Thu 11:08:37 AM 39.2164 -119.9422 53° Northeast 506 582 36,800 1,082 Climbing Oakland Center
Thu 11:09:38 AM 39.3025 -119.8017 52° Northeast 498 573 37,800 738 Climbing Oakland Center
Thu 11:10:39 AM 39.3869 -119.6586 53° Northeast 498 573 38,300 488 Climbing Oakland Center
Thu 11:11:41 AM 39.4725 -119.5128 53° Northeast 506 582 38,800 341 Climbing Oakland Center
Thu 11:12:42 AM 39.5564 -119.3669 53° Northeast 503 579 39,000 98 Climbing Oakland Center
Thu 11:13:43 AM 39.6444 -119.2150 53° Northeast 519 597 39,000  Level Oakland Center
Thu 11:14:45 AM 39.7336 -119.0614 53° Northeast 526 605 39,000  Level Oakland Center
Thu 11:15:46 AM 39.8228 -118.9075 53° Northeast 527 606 39,000  Level Oakland Center
Thu 11:16:47 AM 39.9047 -118.7522 55° Northeast 519 597 39,000  Level Oakland Center
Thu 11:17:49 AM 39.9711 -118.5861 62° Northeast 513 590 39,000  Level Oakland Center
Thu 11:18:50 AM 40.0514 -118.3883 62° Northeast 511 588 39,000  Level Oakland Center
Thu 11:19:51 AM 40.1167 -118.2236 63° Northeast 510 587 39,000  Level Oakland Center
Thu 11:20:41 AM 40.1714 -118.0886 62° Northeast 510 587 39,000  Level Salt Lake Center
Thu 11:21:43 AM 40.2206 -117.9264 68° East 504 580 39,000  Level Salt Lake Center
Thu 11:22:45 AM 40.2644 -117.7325 73° East 498 573 39,000  Level Salt Lake Center
Thu 11:23:48 AM 40.3039 -117.5669 73° East 497 572 39,000  Level Salt Lake Center
Thu 11:24:50 AM 40.3419 -117.4017 73° East 495 570 39,000  Level Salt Lake Center
Thu 11:25:52 AM 40.3861 -117.2094 73° East 493 567 39,000  Level Salt Lake Center
Thu 11:26:54 AM 40.4239 -117.0464 73° East 488 562 39,000  Level Salt Lake Center
Thu 11:27:57 AM 40.4644 -116.8561 74° East 492 566 39,000  Level Salt Lake Center
Thu 11:28:58 AM 40.5061 -116.6767 73° East 497 572 39,000  Level Salt Lake Center
Thu 11:30:00 AM 40.5422 -116.5092 74° East 496 571 39,000  Level Salt Lake Center
Thu 11:31:02 AM 40.5728 -116.3106 78° East 495 570 39,000  Level Salt Lake Center
Thu 11:32:04 AM 40.5861 -116.1397 84° East 490 564 39,000  Level Salt Lake Center
Thu 11:33:06 AM 40.6000 -115.9450 85° East 482 555 39,000  Level Salt Lake Center
Thu 11:34:08 AM 40.6119 -115.7778 85° East 481 554 39,000  Level Salt Lake Center
Thu 11:35:10 AM 40.6272 -115.5819 84° East 482 555 39,000 -242 Level Salt Lake Center
Thu 11:36:12 AM 40.6372 -115.4169 85° East 476 548 38,500 -677 Descending Salt Lake Center
Thu 11:37:14 AM 40.6111 -115.2397 101° East 462 532 37,600 -823 Descending Salt Lake Center
Thu 11:38:16 AM 40.5681 -115.0978 112° Southeast 438 504 36,800 -774 Descending Salt Lake Center
Thu 11:39:18 AM 40.5211 -114.9564 114° Southeast 440 506 36,000 -823 Descending Salt Lake Center
Thu 11:40:20 AM 40.5247 -114.7683 88° East 460 529 35,100 -484 Descending Salt Lake Center
Thu 11:41:22 AM 40.5586 -114.6092 74° East 470 541 35,000 -48 Descending Salt Lake Center
Thu 11:42:24 AM 40.5972 -114.4192 75° East 478 550 35,000  Level Salt Lake Center
Thu 11:43:26 AM 40.6286 -114.2556 76° East 482 555 35,000 -48 Level Salt Lake Center
Thu 11:44:28 AM 40.6669 -114.0639 75° East 485 558 34,900 -1,258 Descending Salt Lake Center
Thu 11:45:30 AM 40.6992 -113.9011 75° East 483 556 32,400 -2,661 Descending Salt Lake Center
Thu 11:46:32 AM 40.7275 -113.7125 79° East 472 543 29,400 -2,758 Descending Salt Lake Center
Thu 11:47:34 AM 40.7267 -113.5522 90° East 460 529 26,700 -2,323 Descending Salt Lake Center
Thu 11:48:36 AM 40.7250 -113.3758 91° East 439 505 24,600 -2,081 Descending Salt Lake Center
Thu 11:49:38 AM 40.7247 -113.2294 90° East 384 442 22,400 -2,032 Descending Salt Lake Center
Thu 11:50:40 AM 40.7231 -113.0958 91° East 369 425 20,400 -1,887 Descending Salt Lake Center
Thu 11:51:42 AM 40.7222 -112.9667 90° East 356 410 18,500 -1,645 Descending Salt Lake Center
Thu 11:52:44 AM 40.7211 -112.8281 91° East 352 405 17,000 -774 Descending Salt Lake Center
Thu 11:53:46 AM 40.7208 -112.7058 90° East 336 387 16,900 -772 Descending Salt Lake Center
Thu 11:54:25 AM 40.7228 -112.6242 88° East 335 386 15,700 -1,723 Descending Salt Lake Center
Thu 11:55:20 AM 40.7206 -112.5119 91° East 333 383 14,200 -1,465 Descending Salt Lake Center
Thu 11:55:51 AM 40.7167 -112.4536 95° East 332 382 13,600 -1,279 Descending Salt Lake Center
Thu 11:56:21 AM 40.7133 -112.3956 94° East 324 373 12,900 -1,258 Descending Salt Lake Center
Thu 11:56:53 AM 40.6986 -112.3344 108° East 308 354 12,300 -574 Descending Salt Lake Center
Thu 11:57:55 AM 40.6750 -112.2333 107° East 283 326 12,000 -145 Descending Salt Lake Center
Thu 11:58:57 AM 40.6542 -112.1364 106° East 259 298 12,000 -339 Level Salt Lake Center
Thu 11:59:59 AM 40.6847 -112.0675 60° Northeast 248 285 11,300 -484 Descending Salt Lake Center
Thu 12:01:01 PM 40.7517 -112.0836 350° North 244 281 11,000 -290 Descending Salt Lake Center
Thu 12:02:03 PM 40.8247 -112.1006 350° North 249 287 10,700 -823 Descending Salt Lake Center
Thu 12:03:05 PM 40.8894 -112.1081 355° North 234 269 9,300 -1,355 Descending Salt Lake Center
Thu 12:04:07 PM 40.9567 -112.1144 356° North 226 260 7,900 -871 Descending Salt Lake Center
Thu 12:05:09 PM 40.9697 -112.0408 77° East 217 250 7,500 -774 Descending Salt Lake Center
Thu 12:06:11 PM 40.9197 -112.0125 157° South 204 235 6,300 -1,065 Descending Salt Lake Center
Thu 12:07:13 PM 40.8667 -112.0058 175° South 177 204 5,300 -774 Descending Salt Lake Center
Thu 12:08:15 PM 40.8308 -112.0014 175° South 135 155 4,700 -581 Descending Salt Lake Center

Login

Don't have an account? Register now (free) for customized features, flight alerts, and more!